Terminal Aerodrome Forecast
Issued by NWS Charleston, WV

Current Version | Previous Version | Graphics & Text | Print | Product List | Glossary On
Versions: 1 2 3 4 5 6 7 8 9 10 11 12 13 14 15 16 17 18 19 20 21 22 23
056
FTUS41 KRLX 131120
TAFEKN
TAF
KEKN 131120Z 1312/1412 30014G25KT 2SM -SHSN BKN020
     FM131400 30014G23KT 5SM -SHSN BKN030
     FM131600 30014G23KT P6SM -SHSN BKN035
     FM140000 30009G16KT P6SM BKN040
     FM140600 31005KT P6SM SCT040=

USA.gov is the U.S. government's official web portal to all federal, state and local government web resources and services.